sensor_id;sensor_type;location;lat;lon;timestamp;pressure;altitude;pressure_sealevel;temperature;humidity
48872;BME280;36154;51.674;7.824;2023-03-14T00:01:32;98296.00;;;20.44;47.46
48872;BME280;36154;51.674;7.824;2023-03-14T00:03:57;98282.63;;;20.37;47.49
48872;BME280;36154;51.674;7.824;2023-03-14T00:06:24;98286.56;;;20.43;47.42
48872;BME280;36154;51.674;7.824;2023-03-14T00:08:50;98302.91;;;20.43;47.37
48872;BME280;36154;51.674;7.824;2023-03-14T00:11:19;98290.81;;;20.44;47.39
48872;BME280;36154;51.674;7.824;2023-03-14T00:13:51;98277.03;;;20.43;47.46
48872;BME280;36154;51.674;7.824;2023-03-14T00:16:17;98276.13;;;20.44;47.48
48872;BME280;36154;51.674;7.824;2023-03-14T00:18:42;98293.41;;;20.44;47.51
48872;BME280;36154;51.674;7.824;2023-03-14T00:21:09;98273.53;;;20.44;47.37
48872;BME280;36154;51.674;7.824;2023-03-14T00:23:37;98267.53;;;20.44;47.32
48872;BME280;36154;51.674;7.824;2023-03-14T00:26:04;98268.38;;;20.44;47.36
48872;BME280;36154;51.674;7.824;2023-03-14T00:28:30;98271.06;;;20.43;47.42
48872;BME280;36154;51.674;7.824;2023-03-14T00:30:56;98248.59;;;20.43;47.74
48872;BME280;36154;51.674;7.824;2023-03-14T00:33:21;98245.19;;;20.43;47.29
48872;BME280;36154;51.674;7.824;2023-03-14T00:35:55;98246.88;;;20.44;47.46
48872;BME280;36154;51.674;7.824;2023-03-14T00:38:20;98259.78;;;20.44;47.35
48872;BME280;36154;51.674;7.824;2023-03-14T00:40:46;98263.28;;;20.43;47.38
48872;BME280;36154;51.674;7.824;2023-03-14T00:43:11;98283.88;;;20.44;47.53
48872;BME280;36154;51.674;7.824;2023-03-14T00:45:36;98282.22;;;20.43;47.42
48872;BME280;36154;51.674;7.824;2023-03-14T00:48:02;98283.97;;;20.43;47.32
48872;BME280;36154;51.674;7.824;2023-03-14T00:50:27;98289.16;;;20.43;47.59
48872;BME280;36154;51.674;7.824;2023-03-14T00:52:52;98279.75;;;20.42;47.34
48872;BME280;36154;51.674;7.824;2023-03-14T00:55:18;98294.31;;;20.43;47.39
48872;BME280;36154;51.674;7.824;2023-03-14T00:57:43;98291.66;;;20.44;47.47
48872;BME280;36154;51.674;7.824;2023-03-14T01:00:09;98265.16;;;20.41;47.52
48872;BME280;36154;51.674;7.824;2023-03-14T01:02:36;98271.06;;;20.43;47.36
48872;BME280;36154;51.674;7.824;2023-03-14T01:05:02;98265.06;;;20.42;47.29
48872;BME280;36154;51.674;7.824;2023-03-14T01:07:27;98261.66;;;20.42;47.31
48872;BME280;36154;51.674;7.824;2023-03-14T01:09:52;98236.72;;;20.41;47.37
48872;BME280;36154;51.674;7.824;2023-03-14T01:12:18;98233.94;;;20.44;47.40
48872;BME280;36154;51.674;7.824;2023-03-14T01:14:43;98247.06;;;20.41;47.38
48872;BME280;36154;51.674;7.824;2023-03-14T01:17:08;98250.38;;;20.43;47.41
48872;BME280;36154;51.674;7.824;2023-03-14T01:19:33;98235.66;;;20.43;47.34
48872;BME280;36154;51.674;7.824;2023-03-14T01:21:59;98240.03;;;20.43;47.34
48872;BME280;36154;51.674;7.824;2023-03-14T01:24:24;98227.09;;;20.43;47.36
48872;BME280;36154;51.674;7.824;2023-03-14T01:26:50;98243.41;;;20.43;47.37
48872;BME280;36154;51.674;7.824;2023-03-14T01:29:15;98236.63;;;20.42;47.40
48872;BME280;36154;51.674;7.824;2023-03-14T01:31:40;98237.44;;;20.43;47.30
48872;BME280;36154;51.674;7.824;2023-03-14T01:34:05;98218.50;;;20.42;47.45
48872;BME280;36154;51.674;7.824;2023-03-14T01:36:31;98249.53;;;20.42;47.33
48872;BME280;36154;51.674;7.824;2023-03-14T01:38:56;98265.06;;;20.42;47.33
48872;BME280;36154;51.674;7.824;2023-03-14T01:41:23;98277.91;;;20.44;47.35
48872;BME280;36154;51.674;7.824;2023-03-14T01:43:50;98308.22;;;20.42;47.32
48872;BME280;36154;51.674;7.824;2023-03-14T01:46:45;98323.72;;;20.42;47.33
48872;BME280;36154;51.674;7.824;2023-03-14T01:49:32;98310.78;;;20.42;47.27
48872;BME280;36154;51.674;7.824;2023-03-14T01:52:05;98288.44;;;20.41;47.32
48872;BME280;36154;51.674;7.824;2023-03-14T01:54:36;98272.09;;;20.40;47.33
48872;BME280;36154;51.674;7.824;2023-03-14T01:59:32;98264.25;;;20.42;47.25
48872;BME280;36154;51.674;7.824;2023-03-14T02:01:58;98260.81;;;20.41;47.29
48872;BME280;36154;51.674;7.824;2023-03-14T02:04:28;98253.06;;;20.41;47.26
48872;BME280;36154;51.674;7.824;2023-03-14T02:07:00;98252.94;;;20.43;47.33
48872;BME280;36154;51.674;7.824;2023-03-14T02:09:28;98250.38;;;20.43;47.31
48872;BME280;36154;51.674;7.824;2023-03-14T02:11:54;98239.19;;;20.42;47.52
48872;BME280;36154;51.674;7.824;2023-03-14T02:14:34;98240.03;;;20.43;46.98
48872;BME280;36154;51.674;7.824;2023-03-14T02:17:02;98239.19;;;20.42;47.48
48872;BME280;36154;51.674;7.824;2023-03-14T02:19:50;98223.69;;;20.42;47.36
48872;BME280;36154;51.674;7.824;2023-03-14T02:22:20;98218.50;;;20.42;47.30
48872;BME280;36154;51.674;7.824;2023-03-14T02:25:03;98223.78;;;20.41;47.20
48872;BME280;36154;51.674;7.824;2023-03-14T02:27:32;98219.53;;;20.40;47.17
48872;BME280;36154;51.674;7.824;2023-03-14T02:30:05;98217.69;;;20.42;47.27
48872;BME280;36154;51.674;7.824;2023-03-14T02:32:33;98238.38;;;20.42;47.30
48872;BME280;36154;51.674;7.824;2023-03-14T02:35:03;98241.88;;;20.41;47.33
48872;BME280;36154;51.674;7.824;2023-03-14T02:38:17;98243.56;;;20.42;47.19
48872;BME280;36154;51.674;7.824;2023-03-14T02:40:23;98248.72;;;20.42;46.99
48872;BME280;36154;51.674;7.824;2023-03-14T02:42:48;98242.72;;;20.41;47.33
48872;BME280;36154;51.674;7.824;2023-03-14T02:47:43;98238.38;;;20.42;47.41
48872;BME280;36154;51.674;7.824;2023-03-14T02:50:12;98230.81;;;20.39;47.26
48872;BME280;36154;51.674;7.824;2023-03-14T02:52:39;98235.78;;;20.42;47.26
48872;BME280;36154;51.674;7.824;2023-03-14T02:55:05;98245.38;;;20.40;47.17
48872;BME280;36154;51.674;7.824;2023-03-14T02:57:30;98238.38;;;20.42;47.22
48872;BME280;36154;51.674;7.824;2023-03-14T03:00:00;98242.72;;;20.41;47.20
48872;BME280;36154;51.674;7.824;2023-03-14T03:02:27;98242.72;;;20.41;47.35
48872;BME280;36154;51.674;7.824;2023-03-14T03:04:52;98244.38;;;20.42;47.54
48872;BME280;36154;51.674;7.824;2023-03-14T03:07:17;98229.06;;;20.39;47.08
48872;BME280;36154;51.674;7.824;2023-03-14T03:09:44;98238.38;;;20.42;47.07
48872;BME280;36154;51.674;7.824;2023-03-14T03:12:09;98240.97;;;20.42;47.33
48872;BME280;36154;51.674;7.824;2023-03-14T03:14:35;98235.78;;;20.42;47.37
48872;BME280;36154;51.674;7.824;2023-03-14T03:17:00;98232.34;;;20.41;47.45
48872;BME280;36154;51.674;7.824;2023-03-14T03:19:25;98235.78;;;20.42;47.19
48872;BME280;36154;51.674;7.824;2023-03-14T03:21:50;98222.88;;;20.42;47.25
48872;BME280;36154;51.674;7.824;2023-03-14T03:24:16;98224.59;;;20.41;47.07
48872;BME280;36154;51.674;7.824;2023-03-14T03:26:41;98221.19;;;20.41;47.25
48872;BME280;36154;51.674;7.824;2023-03-14T03:29:07;98205.06;;;20.37;47.04
48872;BME280;36154;51.674;7.824;2023-03-14T03:31:32;98216.03;;;20.41;47.05
48872;BME280;36154;51.674;7.824;2023-03-14T03:33:57;98221.19;;;20.41;47.31
48872;BME280;36154;51.674;7.824;2023-03-14T03:36:24;98216.13;;;20.39;47.18
48872;BME280;36154;51.674;7.824;2023-03-14T03:38:50;98213.44;;;20.41;47.17
48872;BME280;36154;51.674;7.824;2023-03-14T03:41:16;98210.84;;;20.41;47.11
48872;BME280;36154;51.674;7.824;2023-03-14T03:43:41;98206.59;;;20.40;47.02
48872;BME280;36154;51.674;7.824;2023-03-14T03:46:07;98203.09;;;20.41;47.15
48872;BME280;36154;51.674;7.824;2023-03-14T03:48:33;98210.03;;;20.40;47.05
48872;BME280;36154;51.674;7.824;2023-03-14T03:50:58;98199.78;;;20.39;47.06
48872;BME280;36154;51.674;7.824;2023-03-14T03:53:25;98209.41;;;20.37;47.05
48872;BME280;36154;51.674;7.824;2023-03-14T03:55:50;98210.97;;;20.39;46.93
48872;BME280;36154;51.674;7.824;2023-03-14T03:58:15;98210.03;;;20.40;47.15
48872;BME280;36154;51.674;7.824;2023-03-14T04:00:41;98209.19;;;20.40;47.16
48872;BME280;36154;51.674;7.824;2023-03-14T04:03:06;98204.00;;;20.40;47.23
48872;BME280;36154;51.674;7.824;2023-03-14T04:05:31;98197.22;;;20.39;47.21
48872;BME280;36154;51.674;7.824;2023-03-14T04:07:57;98198.84;;;20.40;47.19
48872;BME280;36154;51.674;7.824;2023-03-14T04:10:22;98196.25;;;20.40;47.03
48872;BME280;36154;51.674;7.824;2023-03-14T04:12:47;98190.16;;;20.41;47.07
48872;BME280;36154;51.674;7.824;2023-03-14T04:15:12;98192.75;;;20.41;47.01
48872;BME280;36154;51.674;7.824;2023-03-14T04:17:38;98194.63;;;20.39;47.05
48872;BME280;36154;51.674;7.824;2023-03-14T04:20:03;98184.38;;;20.37;46.94
48872;BME280;36154;51.674;7.824;2023-03-14T04:22:29;98174.84;;;20.38;47.01
48872;BME280;36154;51.674;7.824;2023-03-14T04:24:57;98183.31;;;20.40;47.29
48872;BME280;36154;51.674;7.824;2023-03-14T04:27:25;98185.19;;;20.38;47.09
48872;BME280;36154;51.674;7.824;2023-03-14T04:29:50;98183.31;;;20.40;46.96
48872;BME280;36154;51.674;7.824;2023-03-14T04:32:15;98195.53;;;20.38;47.02
48872;BME280;36154;51.674;7.824;2023-03-14T04:34:40;98193.69;;;20.40;46.97
48872;BME280;36154;51.674;7.824;2023-03-14T04:37:06;98186.88;;;20.39;47.17
48872;BME280;36154;51.674;7.824;2023-03-14T04:39:31;98197.09;;;20.40;46.93
48872;BME280;36154;51.674;7.824;2023-03-14T04:41:56;98188.50;;;20.40;47.07
48872;BME280;36154;51.674;7.824;2023-03-14T04:44:22;98188.50;;;20.40;47.04
48872;BME280;36154;51.674;7.824;2023-03-14T04:46:47;98178.16;;;20.40;46.94
48872;BME280;36154;51.674;7.824;2023-03-14T04:49:12;98172.25;;;20.38;47.06
48872;BME280;36154;51.674;7.824;2023-03-14T04:51:38;98172.97;;;20.40;47.07
48872;BME280;36154;51.674;7.824;2023-03-14T04:54:03;98167.81;;;20.40;47.04
48872;BME280;36154;51.674;7.824;2023-03-14T04:56:28;98173.94;;;20.39;47.10
48872;BME280;36154;51.674;7.824;2023-03-14T04:58:53;98181.69;;;20.39;47.05
48872;BME280;36154;51.674;7.824;2023-03-14T05:01:19;98167.91;;;20.38;46.98
48872;BME280;36154;51.674;7.824;2023-03-14T05:03:44;98167.00;;;20.39;47.13
48872;BME280;36154;51.674;7.824;2023-03-14T05:06:09;98170.50;;;20.38;46.83
48872;BME280;36154;51.674;7.824;2023-03-14T05:08:35;98171.34;;;20.39;47.00
48872;BME280;36154;51.674;7.824;2023-03-14T05:11:00;98171.56;;;20.36;46.98
48872;BME280;36154;51.674;7.824;2023-03-14T05:13:26;98176.72;;;20.36;46.60
48872;BME280;36154;51.674;7.824;2023-03-14T05:15:51;98181.91;;;20.36;47.06
48872;BME280;36154;51.674;7.824;2023-03-14T05:18:18;98187.06;;;20.36;46.88
48872;BME280;36154;51.674;7.824;2023-03-14T05:20:43;98192.13;;;20.37;46.53
48872;BME280;36154;51.674;7.824;2023-03-14T05:23:09;98183.56;;;20.37;47.00
48872;BME280;36154;51.674;7.824;2023-03-14T05:25:34;98180.22;;;20.35;47.27
48872;BME280;36154;51.674;7.824;2023-03-14T05:28:00;98164.72;;;20.35;46.75
48872;BME280;36154;51.674;7.824;2023-03-14T05:30:25;98161.22;;;20.36;46.95
48872;BME280;36154;51.674;7.824;2023-03-14T05:32:50;98166.38;;;20.36;46.96
48872;BME280;36154;51.674;7.824;2023-03-14T05:35:16;98166.38;;;20.36;47.00
48872;BME280;36154;51.674;7.824;2023-03-14T05:37:43;98181.19;;;20.34;46.77
48872;BME280;36154;51.674;7.824;2023-03-14T05:40:09;98168.97;;;20.36;46.99
48872;BME280;36154;51.674;7.824;2023-03-14T05:42:35;98165.75;;;20.32;47.03
48872;BME280;36154;51.674;7.824;2023-03-14T05:45:00;98163.06;;;20.34;46.80
48872;BME280;36154;51.674;7.824;2023-03-14T05:47:25;98159.53;;;20.35;47.17
48872;BME280;36154;51.674;7.824;2023-03-14T05:49:51;98154.38;;;20.35;46.88
48872;BME280;36154;51.674;7.824;2023-03-14T05:52:16;98161.22;;;20.36;46.96
48872;BME280;36154;51.674;7.824;2023-03-14T05:54:41;98161.31;;;20.34;46.82
48872;BME280;36154;51.674;7.824;2023-03-14T05:57:07;98163.06;;;20.34;46.80
48872;BME280;36154;51.674;7.824;2023-03-14T05:59:32;98157.06;;;20.33;47.00
48872;BME280;36154;51.674;7.824;2023-03-14T06:01:57;98152.72;;;20.34;46.93
48872;BME280;36154;51.674;7.824;2023-03-14T06:04:24;98146.81;;;20.31;46.95
48872;BME280;36154;51.674;7.824;2023-03-14T06:06:49;98142.59;;;20.30;47.04
48872;BME280;36154;51.674;7.824;2023-03-14T06:09:15;98159.53;;;20.35;46.34
48872;BME280;36154;51.674;7.824;2023-03-14T06:11:40;98154.38;;;20.35;46.74
48872;BME280;36154;51.674;7.824;2023-03-14T06:14:06;98155.22;;;20.35;46.92
48872;BME280;36154;51.674;7.824;2023-03-14T06:16:31;98150.25;;;20.32;46.88
48872;BME280;36154;51.674;7.824;2023-03-14T06:18:57;98139.06;;;20.31;47.04
48872;BME280;36154;51.674;7.824;2023-03-14T06:21:22;98147.56;;;20.34;46.91
48872;BME280;36154;51.674;7.824;2023-03-14T06:23:47;98140.63;;;20.34;46.74
48872;BME280;36154;51.674;7.824;2023-03-14T06:26:13;98135.75;;;20.29;46.88
48872;BME280;36154;51.674;7.824;2023-03-14T06:28:38;98126.88;;;20.34;46.92
48872;BME280;36154;51.674;7.824;2023-03-14T06:31:04;98128.72;;;20.31;47.03
48872;BME280;36154;51.674;7.824;2023-03-14T06:33:30;98123.53;;;20.31;47.00
48872;BME280;36154;51.674;7.824;2023-03-14T06:35:55;98127.09;;;20.30;47.01
48872;BME280;36154;51.674;7.824;2023-03-14T06:38:20;98125.41;;;20.29;46.97
48872;BME280;36154;51.674;7.824;2023-03-14T06:40:46;98132.06;;;20.34;46.90
48872;BME280;36154;51.674;7.824;2023-03-14T06:43:11;98118.38;;;20.31;46.91
48872;BME280;36154;51.674;7.824;2023-03-14T06:45:36;98117.47;;;20.33;46.78
48872;BME280;36154;51.674;7.824;2023-03-14T06:48:02;98114.88;;;20.33;46.98
48872;BME280;36154;51.674;7.824;2023-03-14T06:50:28;98124.28;;;20.34;46.87
48872;BME280;36154;51.674;7.824;2023-03-14T06:52:55;98115.78;;;20.31;46.80
48872;BME280;36154;51.674;7.824;2023-03-14T06:55:21;98126.03;;;20.33;46.99
48872;BME280;36154;51.674;7.824;2023-03-14T06:57:46;98120.03;;;20.33;47.05
48872;BME280;36154;51.674;7.824;2023-03-14T07:00:12;98119.22;;;20.32;46.95
48872;BME280;36154;51.674;7.824;2023-03-14T07:02:38;98119.94;;;20.34;47.01
48872;BME280;36154;51.674;7.824;2023-03-14T07:05:04;98121.91;;;20.30;46.92
48872;BME280;36154;51.674;7.824;2023-03-14T07:07:30;98123.53;;;20.31;47.08
48872;BME280;36154;51.674;7.824;2023-03-14T07:09:55;98132.06;;;20.34;47.14
48872;BME280;36154;51.674;7.824;2023-03-14T07:12:21;98132.06;;;20.34;46.99
48872;BME280;36154;51.674;7.824;2023-03-14T07:14:46;98130.38;;;20.33;47.07
48872;BME280;36154;51.674;7.824;2023-03-14T07:17:11;98129.56;;;20.32;47.08
48872;BME280;36154;51.674;7.824;2023-03-14T07:19:37;98132.06;;;20.34;46.94
48872;BME280;36154;51.674;7.824;2023-03-14T07:22:03;98130.38;;;20.33;46.87
48872;BME280;36154;51.674;7.824;2023-03-14T07:24:29;98130.38;;;20.33;47.22
48872;BME280;36154;51.674;7.824;2023-03-14T07:26:54;98131.09;;;20.35;46.88
48872;BME280;36154;51.674;7.824;2023-03-14T07:29:19;98133.69;;;20.35;46.88
48872;BME280;36154;51.674;7.824;2023-03-14T07:31:44;98133.47;;;20.38;46.94
48872;BME280;36154;51.674;7.824;2023-03-14T07:34:10;98139.47;;;20.38;47.01
48872;BME280;36154;51.674;7.824;2023-03-14T07:36:35;98130.78;;;20.39;47.27
48872;BME280;36154;51.674;7.824;2023-03-14T07:39:00;98119.84;;;20.36;47.13
48872;BME280;36154;51.674;7.824;2023-03-14T07:41:26;98129.78;;;20.42;47.30
48872;BME280;36154;51.674;7.824;2023-03-14T07:43:53;98134.72;;;20.45;47.52
48872;BME280;36154;51.674;7.824;2023-03-14T07:46:19;98142.28;;;20.48;47.43
48872;BME280;36154;51.674;7.824;2023-03-14T07:48:44;98141.38;;;20.49;47.51
48872;BME280;36154;51.674;7.824;2023-03-14T07:51:09;98145.72;;;20.48;47.45
48872;BME280;36154;51.674;7.824;2023-03-14T07:53:34;98145.72;;;20.48;47.38
48872;BME280;36154;51.674;7.824;2023-03-14T07:56:00;98146.53;;;20.49;47.47
48872;BME280;36154;51.674;7.824;2023-03-14T07:58:25;98151.72;;;20.49;47.35
48872;BME280;36154;51.674;7.824;2023-03-14T08:00:51;98158.66;;;20.48;47.24
48872;BME280;36154;51.674;7.824;2023-03-14T08:03:17;98140.56;;;20.48;47.32
48872;BME280;36154;51.674;7.824;2023-03-14T08:05:43;98146.53;;;20.49;47.33
48872;BME280;36154;51.674;7.824;2023-03-14T08:08:08;98146.53;;;20.49;47.24
48872;BME280;36154;51.674;7.824;2023-03-14T08:10:34;98149.03;;;20.51;47.34
48872;BME280;36154;51.674;7.824;2023-03-14T08:13:00;98141.38;;;20.49;47.63
48872;BME280;36154;51.674;7.824;2023-03-14T08:15:26;98151.63;;;20.51;47.41
48872;BME280;36154;51.674;7.824;2023-03-14T08:17:52;98152.44;;;20.51;47.59
48872;BME280;36154;51.674;7.824;2023-03-14T08:20:20;98144.69;;;20.51;47.64
48872;BME280;36154;51.674;7.824;2023-03-14T08:22:45;98153.34;;;20.50;47.76
48872;BME280;36154;51.674;7.824;2023-03-14T08:25:12;98161.84;;;20.52;47.99
48872;BME280;36154;51.674;7.824;2023-03-14T08:27:38;98158.41;;;20.52;48.06
48872;BME280;36154;51.674;7.824;2023-03-14T08:30:08;98159.16;;;20.54;48.25
48872;BME280;36154;51.674;7.824;2023-03-14T08:32:34;98170.34;;;20.54;48.52
48872;BME280;36154;51.674;7.824;2023-03-14T08:34:59;98163.50;;;20.53;48.39
48872;BME280;36154;51.674;7.824;2023-03-14T08:37:24;98163.41;;;20.55;48.38
48872;BME280;36154;51.674;7.824;2023-03-14T08:39:51;98169.50;;;20.54;48.36
48872;BME280;36154;51.674;7.824;2023-03-14T08:42:16;98166.19;;;20.52;48.38
48872;BME280;36154;51.674;7.824;2023-03-14T08:44:42;98167.03;;;20.52;48.44
48872;BME280;36154;51.674;7.824;2023-03-14T08:47:07;98167.03;;;20.52;48.28
48872;BME280;36154;51.674;7.824;2023-03-14T08:49:32;98163.59;;;20.52;48.43
48872;BME280;36154;51.674;7.824;2023-03-14T08:51:58;98167.84;;;20.53;48.51
48872;BME280;36154;51.674;7.824;2023-03-14T08:54:23;98172.22;;;20.52;48.52
48872;BME280;36154;51.674;7.824;2023-03-14T08:56:49;98167.03;;;20.52;48.63
48872;BME280;36154;51.674;7.824;2023-03-14T08:59:14;98172.22;;;20.52;48.62
48872;BME280;36154;51.674;7.824;2023-03-14T09:01:40;98173.03;;;20.53;48.71
48872;BME280;36154;51.674;7.824;2023-03-14T09:04:05;98170.53;;;20.51;48.79
48872;BME280;36154;51.674;7.824;2023-03-14T09:06:31;98177.38;;;20.52;48.60
48872;BME280;36154;51.674;7.824;2023-03-14T09:08:57;98172.41;;;20.49;48.72
48872;BME280;36154;51.674;7.824;2023-03-14T09:11:22;98180.78;;;20.53;48.81
48872;BME280;36154;51.674;7.824;2023-03-14T09:13:47;98179.00;;;20.53;48.77
48872;BME280;36154;51.674;7.824;2023-03-14T09:16:14;98188.53;;;20.53;48.73
48872;BME280;36154;51.674;7.824;2023-03-14T09:18:39;98183.38;;;20.53;48.77
48872;BME280;36154;51.674;7.824;2023-03-14T09:21:04;98194.63;;;20.52;48.78
48872;BME280;36154;51.674;7.824;2023-03-14T09:23:30;98200.66;;;20.52;48.84
48872;BME280;36154;51.674;7.824;2023-03-14T09:25:57;98190.31;;;20.52;48.75
48872;BME280;36154;51.674;7.824;2023-03-14T09:28:23;98189.34;;;20.53;48.84
48872;BME280;36154;51.674;7.824;2023-03-14T09:30:48;98189.34;;;20.53;48.96
48872;BME280;36154;51.674;7.824;2023-03-14T09:33:15;98186.78;;;20.53;48.68
48872;BME280;36154;51.674;7.824;2023-03-14T09:35:40;98191.13;;;20.53;48.85
48872;BME280;36154;51.674;7.824;2023-03-14T09:38:05;98195.38;;;20.54;48.37
48872;BME280;36154;51.674;7.824;2023-03-14T09:40:34;98194.53;;;20.53;48.85
48872;BME280;36154;51.674;7.824;2023-03-14T09:43:01;98199.72;;;20.53;49.12
48872;BME280;36154;51.674;7.824;2023-03-14T09:45:33;98203.97;;;20.54;48.69
48872;BME280;36154;51.674;7.824;2023-03-14T09:48:00;98198.78;;;20.54;48.74
48872;BME280;36154;51.674;7.824;2023-03-14T09:50:31;98200.56;;;20.54;48.61
48872;BME280;36154;51.674;7.824;2023-03-14T09:53:20;98194.53;;;20.53;48.65
48872;BME280;36154;51.674;7.824;2023-03-14T09:55:48;98204.06;;;20.53;48.70
48872;BME280;36154;51.674;7.824;2023-03-14T09:58:22;98211.91;;;20.51;48.60
48872;BME280;36154;51.674;7.824;2023-03-14T10:00:49;98222.25;;;20.51;48.69
48872;BME280;36154;51.674;7.824;2023-03-14T10:05:46;98232.59;;;20.51;48.63
48872;BME280;36154;51.674;7.824;2023-03-14T10:08:12;98280.94;;;20.51;48.61
48872;BME280;36154;51.674;7.824;2023-03-14T10:10:38;98282.66;;;20.50;48.58
48872;BME280;36154;51.674;7.824;2023-03-14T10:15:35;98285.50;;;20.47;48.56
48872;BME280;36154;51.674;7.824;2023-03-14T10:18:02;98301.72;;;20.49;48.42
48872;BME280;36154;51.674;7.824;2023-03-14T10:20:34;98315.56;;;20.48;48.33
48872;BME280;36154;51.674;7.824;2023-03-14T10:23:02;98324.28;;;20.47;48.32
48872;BME280;36154;51.674;7.824;2023-03-14T10:25:32;98340.63;;;20.47;48.32
48872;BME280;36154;51.674;7.824;2023-03-14T10:27:58;98344.97;;;20.47;48.41
48872;BME280;36154;51.674;7.824;2023-03-14T10:35:42;98382.06;;;20.46;48.45
48872;BME280;36154;51.674;7.824;2023-03-14T10:38:12;98395.00;;;20.46;48.15
48872;BME280;36154;51.674;7.824;2023-03-14T10:40:40;98428.56;;;20.47;48.21
48872;BME280;36154;51.674;7.824;2023-03-14T10:43:13;98426.84;;;20.46;48.27
48872;BME280;36154;51.674;7.824;2023-03-14T10:45:41;98441.53;;;20.46;48.28
48872;BME280;36154;51.674;7.824;2023-03-14T10:48:22;98456.25;;;20.45;48.25
48872;BME280;36154;51.674;7.824;2023-03-14T10:53:50;98476.09;;;20.45;48.13
48872;BME280;36154;51.674;7.824;2023-03-14T10:56:21;98488.28;;;20.43;48.07
48872;BME280;36154;51.674;7.824;2023-03-14T10:58:57;98487.56;;;20.41;48.15
48872;BME280;36154;51.674;7.824;2023-03-14T11:04:26;98522.00;;;20.41;47.94
48872;BME280;36154;51.674;7.824;2023-03-14T11:07:21;98533.38;;;20.39;48.10
48872;BME280;36154;51.674;7.824;2023-03-14T11:12:57;98583.25;;;20.41;47.91
48872;BME280;36154;51.674;7.824;2023-03-14T11:28:41;98705.72;;;20.40;47.89
48872;BME280;36154;51.674;7.824;2023-03-14T11:34:07;98728.09;;;20.41;47.87
48872;BME280;36154;51.674;7.824;2023-03-14T11:36:51;98740.28;;;20.39;47.66
48872;BME280;36154;51.674;7.824;2023-03-14T11:39:19;98752.28;;;20.40;47.76
48872;BME280;36154;51.674;7.824;2023-03-14T11:41:51;98769.47;;;20.41;47.72
48872;BME280;36154;51.674;7.824;2023-03-14T11:46:52;98791.84;;;20.42;47.67
48872;BME280;36154;51.674;7.824;2023-03-14T11:51:56;98811.75;;;20.40;47.78
48872;BME280;36154;51.674;7.824;2023-03-14T11:54:28;98831.53;;;20.41;47.58
48872;BME280;36154;51.674;7.824;2023-03-14T11:57:00;98831.53;;;20.41;47.49
48872;BME280;36154;51.674;7.824;2023-03-14T12:00:19;98848.75;;;20.42;47.64
48872;BME280;36154;51.674;7.824;2023-03-14T12:02:21;98858.31;;;20.40;47.83
48872;BME280;36154;51.674;7.824;2023-03-14T12:05:13;98859.25;;;20.39;47.67
48872;BME280;36154;51.674;7.824;2023-03-14T12:07:51;98875.59;;;20.39;47.74
48872;BME280;36154;51.674;7.824;2023-03-14T12:10:27;98895.47;;;20.39;47.65
48872;BME280;36154;51.674;7.824;2023-03-14T12:12:52;98906.72;;;20.38;47.49
48872;BME280;36154;51.674;7.824;2023-03-14T12:15:20;98910.25;;;20.37;47.67
48872;BME280;36154;51.674;7.824;2023-03-14T12:17:47;98921.41;;;20.37;47.70
48872;BME280;36154;51.674;7.824;2023-03-14T12:20:21;98930.16;;;20.35;47.66
48872;BME280;36154;51.674;7.824;2023-03-14T12:23:04;98932.75;;;20.35;47.28
48872;BME280;36154;51.674;7.824;2023-03-14T12:25:32;98935.34;;;20.35;47.67
48872;BME280;36154;51.674;7.824;2023-03-14T12:30:43;98954.38;;;20.34;47.45
48872;BME280;36154;51.674;7.824;2023-03-14T12:35:47;98957.88;;;20.33;47.75
48872;BME280;36154;51.674;7.824;2023-03-14T12:43:45;98987.22;;;20.31;47.55
48872;BME280;36154;51.674;7.824;2023-03-14T12:48:44;98987.22;;;20.31;47.56
48872;BME280;36154;51.674;7.824;2023-03-14T12:51:18;98988.91;;;20.33;47.63
48872;BME280;36154;51.674;7.824;2023-03-14T13:01:48;99026.00;;;20.31;47.37
48872;BME280;36154;51.674;7.824;2023-03-14T13:04:18;99041.53;;;20.31;47.34
48872;BME280;36154;51.674;7.824;2023-03-14T13:06:54;99050.97;;;20.33;47.41
48872;BME280;36154;51.674;7.824;2023-03-14T13:11:53;99066.47;;;20.33;47.47
48872;BME280;36154;51.674;7.824;2023-03-14T13:14:19;99069.97;;;20.31;47.38
48872;BME280;36154;51.674;7.824;2023-03-14T13:16:46;99078.50;;;20.34;47.21
48872;BME280;36154;51.674;7.824;2023-03-14T13:19:38;99081.09;;;20.34;47.08
48872;BME280;36154;51.674;7.824;2023-03-14T13:22:06;99089.69;;;20.34;47.08
48872;BME280;36154;51.674;7.824;2023-03-14T13:24:40;99100.84;;;20.35;47.09
48872;BME280;36154;51.674;7.824;2023-03-14T13:27:16;99107.72;;;20.36;47.09
48872;BME280;36154;51.674;7.824;2023-03-14T13:29:43;99105.13;;;20.36;47.23
48872;BME280;36154;51.674;7.824;2023-03-14T13:32:22;99120.63;;;20.36;47.03
48872;BME280;36154;51.674;7.824;2023-03-14T13:34:51;99131.81;;;20.36;46.99
48872;BME280;36154;51.674;7.824;2023-03-14T13:37:22;99119.75;;;20.37;47.03
48872;BME280;36154;51.674;7.824;2023-03-14T13:39:52;99133.56;;;20.36;46.98
48872;BME280;36154;51.674;7.824;2023-03-14T13:42:18;99136.91;;;20.38;46.95
48872;BME280;36154;51.674;7.824;2023-03-14T13:44:44;99141.19;;;20.39;46.88
48872;BME280;36154;51.674;7.824;2023-03-14T13:47:16;99145.41;;;20.40;46.78
48872;BME280;36154;51.674;7.824;2023-03-14T13:49:43;99152.28;;;20.41;46.75
48872;BME280;36154;51.674;7.824;2023-03-14T13:52:44;99153.97;;;20.42;46.84
48872;BME280;36154;51.674;7.824;2023-03-14T13:55:16;99163.28;;;20.44;46.83
48872;BME280;36154;51.674;7.824;2023-03-14T13:57:47;99160.63;;;20.46;46.67
48872;BME280;36154;51.674;7.824;2023-03-14T14:00:20;99165.69;;;20.49;46.57
48872;BME280;36154;51.674;7.824;2023-03-14T14:02:48;99179.38;;;20.51;46.64
48872;BME280;36154;51.674;7.824;2023-03-14T14:05:13;99187.13;;;20.51;46.59
48872;BME280;36154;51.674;7.824;2023-03-14T14:07:39;99189.72;;;20.51;46.43
48872;BME280;36154;51.674;7.824;2023-03-14T14:10:05;99198.22;;;20.53;46.40
48872;BME280;36154;51.674;7.824;2023-03-14T14:12:41;99204.47;;;20.49;46.44